KMIW

Marshalltown Municipal Airport

Marshalltown, Iowa, USA
METAR KMIW 151853Z AUTO 31010KT 10SM CLR M14/M17 A3008 RMK AO2 SLP210 T11391172
Observed Flight Rules
Feb-15 @ 18:53 UTC (18 minutes ago) Visual Flight Rules
Wind Visibility Clouds
310° at 10 knots 10 miles
  • Clear skies
Temperatures Readings
Current -14°C / 7°F
Dewpoint -17°C / 1°F
Humidity 78%
Altimeter 30.08" Hg
Pressure 1021 hPa
Elevation 296
METAR KMIW 151853Z AUTO 31010KT 10SM CLR M14/M17 A3008 RMK AO2 SLP210 T11391172
Observed Flight Rules
Feb-15 @ 18:53 UTC
(18 minutes ago)
VFR
Wind Visibility
310° at 10 knots 10 miles
Clouds
  • Clear skies
Temperature Dewpoint
-14°C / 7°F -17°C / 1°F
Humidity Altimeter Pressure
78% 30.08" Hg 1021 hPa